Flight Track Log - Related Links

Times and Time Zones

All times are in EDT time to prevent confusion due to time zone crossing. See the N400PU flight status page for this flight to view local times or setup timezone preferences in your user account.

Time Position Orientation Groundspeed Altitude Reporting Facility
EDT Latitude Longitude Course Direction KTS MPH feet Rate Location/Type
Tue 09:20:23 PM 38.3167 -85.6333 337° Northwest 244 281 3,000  Level Louisville TRACON
Tue 09:22:19 PM 38.4117 -85.6856 337° Northwest 273 314 4,600 1,797 Climbing Indianapolis Center
Tue 09:23:20 PM 38.4647 -85.7797 306° West 271 312 8,300 2,634 Climbing Indianapolis Center
Tue 09:24:22 PM 38.5217 -85.8486 317° Northwest 293 337 10,000 919 Climbing Indianapolis Center
Tue 09:25:24 PM 38.6050 -85.9031 333° Northwest 335 386 10,200 976 Climbing Indianapolis Center
Tue 09:26:25 PM 38.6878 -85.9561 333° Northwest 336 387 12,000 1,805 Climbing Indianapolis Center
Tue 09:27:27 PM 38.7742 -86.0131 333° Northwest 345 397 13,900 976 Climbing Indianapolis Center
Tue 09:28:28 PM 38.8703 -86.0678 336° Northwest 371 427 14,000 49 Climbing Indianapolis Center
Tue 09:29:30 PM 38.9822 -86.1283 337° Northwest 386 444 14,000  Level Indianapolis Center
Tue 09:30:31 PM 39.0814 -86.1825 337° Northwest 388 447 14,000  Level Indianapolis Center
Tue 09:31:33 PM 39.1811 -86.2383 337° Northwest 391 450 14,000  Level Indianapolis Center
Tue 09:32:34 PM 39.2800 -86.2931 337° Northwest 388 447 14,000  Level Indianapolis Center
Tue 09:33:35 PM 39.3806 -86.3489 337° Northwest 391 450 14,000  Level Indianapolis Center
Tue 09:34:37 PM 39.4811 -86.4047 337° Northwest 391 450 14,000  Level Indianapolis Center
Tue 09:35:38 PM 39.5808 -86.4619 336° Northwest 390 449 14,000  Level Indianapolis Center
Tue 09:36:40 PM 39.6831 -86.5192 337° Northwest 392 451 14,000 -439 Level Indianapolis Center
Tue 09:37:41 PM 39.7819 -86.5744 337° Northwest 386 444 13,100 -1,475 Descending Indianapolis Center
Tue 09:38:42 PM 39.8756 -86.6275 336° Northwest 370 426 11,000 -1,854 Descending Indianapolis Center
Tue 09:39:44 PM 39.9747 -86.6831 337° Northwest 324 373 9,300 -2,000 Descending Indianapolis Center
Tue 09:40:45 PM 40.0458 -86.7261 335° Northwest 290 334 6,900 -2,213 Descending Indianapolis Center
Tue 09:41:46 PM 40.1178 -86.7669 337° Northwest 284 327 4,800 -1,946 Descending Indianapolis Center
Tue 09:42:36 PM 40.1731 -86.7992 336° Northwest 279 321 3,300 -1,317 Descending Chicago Center
Tue 09:43:08 PM 40.2086 -86.8219 334° Northwest 259 298 3,000 -295 Descending Chicago Center
Tue 09:43:37 PM 40.2311 -86.8325 340° North 249 287 3,000  Level Chicago Center
Tue 09:44:09 PM 40.2575 -86.8497 334° Northwest 202 232 3,000 -97 Level Chicago Center
Tue 09:44:39 PM 40.2808 -86.8608 340° North 216 249 2,900 -700 Descending Chicago Center
Tue 09:45:09 PM 40.3128 -86.8833 332° Northwest 205 236 2,300 -774 Descending Chicago Center
Tue 09:45:41 PM 40.3317 -86.8936 337° Northwest 206 237 2,100 -295 Descending Chicago Center
Tue 09:46:10 PM 40.3572 -86.9161 326° Northwest 195 224 2,000  Descending Chicago Center
Tue 09:46:42 PM 40.3767 -86.9319 328° Northwest 200 230 2,100 -100 Climbing Chicago Center
Tue 09:47:10 PM 40.3756 -86.9828 268° West 198 228 1,900 -387 Descending Chicago Center
Tue 09:47:44 PM 40.3803 -87.0053 285° West 196 226 1,700 -197 Descending Chicago Center
Tue 09:48:11 PM 40.3967 -87.0281 313° West 164 189 1,700 97 Level Chicago Center
Tue 09:48:46 PM 40.4150 -87.0247 North 207 238 1,800 -393 Climbing Chicago Center
Tue 09:49:12 PM 40.4189 -86.9967 80° East 139 160 1,300 -1,154 Descending Chicago Center
Tue 09:51:00 PM 40.4000 -86.9333 333° Northwest  Level FlightAware Approximate

Login

Don't have an account? Register now (free) for customized features, flight alerts, and more!